createdAt,value
2023-02-20T00:00:40.028Z,101.75
2023-02-20T00:01:40.055Z,103.46
2023-02-20T00:02:40.177Z,101.94
2023-02-20T00:03:40.142Z,102.72
2023-02-20T00:04:40.140Z,101.29
2023-02-20T00:05:40.178Z,100.90
2023-02-20T00:06:41.709Z,101.29
2023-02-20T00:07:40.221Z,102.28
2023-02-20T00:08:40.255Z,100.54
2023-02-20T00:09:40.283Z,101.31
2023-02-20T00:10:40.334Z,101.16
2023-02-20T00:11:40.358Z,102.39
2023-02-20T00:12:40.388Z,102.49
2023-02-20T00:13:40.416Z,102.96
2023-02-20T00:14:40.439Z,102.41
2023-02-20T00:15:40.485Z,101.65
2023-02-20T00:16:40.490Z,102.06
2023-02-20T00:17:40.519Z,101.97
2023-02-20T00:18:40.566Z,100.88
2023-02-20T00:19:40.581Z,101.73
2023-02-20T00:20:40.609Z,101.28
2023-02-20T00:21:40.655Z,102.75
2023-02-20T00:22:40.685Z,102.97
2023-02-20T00:23:40.710Z,102.45
2023-02-20T00:24:40.734Z,103.14
2023-02-20T00:25:40.762Z,102.57
2023-02-20T00:26:40.784Z,104.14
2023-02-20T00:27:40.815Z,103.92
2023-02-20T00:28:40.843Z,103.45
2023-02-20T00:29:40.866Z,101.63
2023-02-20T00:30:40.957Z,101.86
2023-02-20T00:31:40.971Z,102.32
2023-02-20T00:32:40.966Z,102.27
2023-02-20T00:33:40.990Z,102.14
2023-02-20T00:34:41.038Z,103.21
2023-02-20T00:36:41.074Z,102.82
2023-02-20T00:37:41.104Z,101.95
2023-02-20T00:38:41.140Z,104.41
2023-02-20T00:39:41.168Z,103.10
2023-02-20T00:40:41.199Z,102.68
2023-02-20T00:41:41.225Z,103.05
2023-02-20T00:42:41.266Z,105.20
2023-02-20T00:43:41.300Z,104.54
2023-02-20T00:44:41.338Z,103.49
2023-02-20T00:45:41.379Z,104.35
2023-02-20T00:46:41.416Z,104.45
2023-02-20T00:47:41.425Z,104.64
2023-02-20T00:48:41.478Z,104.48
2023-02-20T00:49:41.490Z,103.28
2023-02-20T00:50:41.513Z,102.87
2023-02-20T00:51:41.540Z,103.85
2023-02-20T00:52:41.556Z,102.31
2023-02-20T00:53:41.584Z,102.27
2023-02-20T00:54:41.610Z,103.17
2023-02-20T00:55:41.636Z,102.95
2023-02-20T00:56:41.653Z,104.32
2023-02-20T00:58:41.708Z,103.08
2023-02-20T00:59:41.731Z,103.78
2023-02-20T01:00:41.771Z,104.35
2023-02-20T01:01:41.851Z,103.73
2023-02-20T01:02:41.884Z,103.94
2023-02-20T01:03:41.861Z,103.97
2023-02-20T01:04:41.890Z,104.50
2023-02-20T01:05:41.915Z,102.81
2023-02-20T01:06:41.942Z,103.37
2023-02-20T01:07:41.966Z,102.70
2023-02-20T01:08:42.036Z,103.54
2023-02-20T01:09:42.027Z,103.07
2023-02-20T01:10:42.060Z,103.48
2023-02-20T01:11:42.073Z,103.14
2023-02-20T01:12:42.132Z,102.72
2023-02-20T01:13:42.175Z,102.26
2023-02-20T01:14:42.222Z,103.18
2023-02-20T01:15:42.259Z,102.49
2023-02-20T01:16:42.266Z,103.19
2023-02-20T01:17:42.303Z,102.11
2023-02-20T02:04:44.290Z,102.26
2023-02-20T02:05:44.346Z,101.54
2023-02-20T02:06:44.367Z,101.17
2023-02-20T02:07:44.477Z,101.51
2023-02-20T02:08:44.484Z,101.45
2023-02-20T02:09:44.522Z,101.26
2023-02-20T02:10:44.574Z,101.16
2023-02-20T02:11:44.602Z,101.72
2023-02-20T02:12:44.645Z,101.36
2023-02-20T02:13:44.684Z,100.62
2023-02-20T02:14:44.747Z,99.83
2023-02-20T02:15:44.801Z,100.36
2023-02-20T02:16:44.867Z,100.44
2023-02-20T02:17:44.928Z,100.37
2023-02-20T02:18:44.965Z,102.96
2023-02-20T02:19:45.024Z,99.80
2023-02-20T02:20:45.087Z,101.34
2023-02-20T02:21:45.144Z,101.81
2023-02-20T02:22:45.199Z,101.97
2023-02-20T02:23:45.234Z,99.90
2023-02-20T02:24:45.287Z,100.14
2023-02-20T02:25:45.310Z,100.30
2023-02-20T02:26:45.368Z,100.09
2023-02-20T02:27:45.440Z,100.96
2023-02-20T02:28:45.488Z,101.39
2023-02-20T02:30:45.607Z,100.15
2023-02-20T02:31:45.656Z,99.77
2023-02-20T02:32:45.707Z,98.86
2023-02-20T02:33:45.761Z,100.43
2023-02-20T02:34:45.818Z,99.81
2023-02-20T02:35:45.875Z,102.86
2023-02-20T02:36:45.931Z,100.26
2023-02-20T02:38:46.049Z,99.56
2023-02-20T02:39:46.082Z,100.04
2023-02-20T02:40:46.114Z,101.90
2023-02-20T02:41:46.161Z,100.41
2023-02-20T02:43:46.278Z,100.40
2023-02-20T02:44:46.357Z,100.69
2023-02-20T02:45:46.437Z,100.95
2023-02-20T02:46:46.448Z,100.45
2023-02-20T02:47:46.501Z,100.68
2023-02-20T02:48:46.559Z,100.83
2023-02-20T02:49:46.596Z,101.31
2023-02-20T02:50:46.643Z,100.53
2023-02-20T02:51:46.685Z,100.35
2023-02-20T02:52:46.829Z,99.31
2023-02-20T02:53:46.805Z,101.79
2023-02-20T02:54:46.837Z,99.41
2023-02-20T02:55:46.867Z,99.31
2023-02-20T02:56:46.915Z,99.87
2023-02-20T02:57:46.950Z,98.91
2023-02-20T02:58:46.972Z,100.82
2023-02-20T02:59:47.002Z,100.03
2023-02-20T03:00:47.075Z,100.89
2023-02-20T03:19:47.822Z,97.77
2023-02-20T03:20:47.836Z,101.44
2023-02-20T03:21:47.876Z,99.98
2023-02-20T03:22:47.917Z,99.29
2023-02-20T03:23:47.942Z,98.73
2023-02-20T03:24:47.990Z,98.37
2023-02-20T03:25:48.011Z,97.44
2023-02-20T03:26:48.036Z,98.73
2023-02-20T03:27:48.082Z,98.95
2023-02-20T03:28:48.106Z,99.72
2023-02-20T03:29:48.138Z,99.13
2023-02-20T03:30:48.177Z,99.37
2023-02-20T03:31:48.260Z,98.99
2023-02-20T03:32:48.239Z,97.50
2023-02-20T03:33:48.285Z,99.72
2023-02-20T03:34:48.326Z,97.00
2023-02-20T03:35:48.370Z,96.30
2023-02-20T03:36:48.424Z,98.89
2023-02-20T03:37:48.469Z,97.53
2023-02-20T03:38:48.522Z,97.82
2023-02-20T03:39:48.557Z,98.37
2023-02-20T03:40:48.602Z,99.00
2023-02-20T03:41:48.650Z,97.06
2023-02-20T03:42:48.687Z,97.40
2023-02-20T03:43:48.711Z,97.80
2023-02-20T03:44:48.759Z,96.28
2023-02-20T03:45:48.846Z,97.89
2023-02-20T03:46:48.843Z,97.03
2023-02-20T03:47:48.883Z,97.81
2023-02-20T03:48:48.944Z,98.36
2023-02-20T03:49:48.995Z,100.31
2023-02-20T03:50:49.041Z,98.80
2023-02-20T03:51:49.087Z,98.47
2023-02-20T03:52:49.127Z,96.91
2023-02-20T03:53:49.178Z,95.26
2023-02-20T03:54:49.205Z,97.29
2023-02-20T03:55:49.253Z,97.20
2023-02-20T03:56:49.300Z,97.17
2023-02-20T03:57:49.353Z,97.45
2023-02-20T03:58:49.397Z,97.34
2023-02-20T03:59:50.279Z,95.35
2023-02-20T04:00:49.481Z,96.24
2023-02-20T04:01:49.530Z,97.68
2023-02-20T04:02:49.572Z,97.81
2023-02-20T04:03:49.582Z,97.92
2023-02-20T04:04:49.596Z,96.03
2023-02-20T04:05:49.618Z,96.09
2023-02-20T04:06:49.643Z,96.43
2023-02-20T04:07:49.664Z,95.94
2023-02-20T04:08:49.686Z,97.43
2023-02-20T04:09:49.707Z,96.89
2023-02-20T04:10:49.730Z,96.92
2023-02-20T04:11:49.778Z,96.18
2023-02-20T04:12:49.802Z,95.23
2023-02-20T04:13:49.839Z,96.67
2023-02-20T04:14:49.865Z,94.46
2023-02-20T04:15:49.912Z,97.48
2023-02-20T04:16:49.964Z,95.78
2023-02-20T04:17:49.986Z,96.38
2023-02-20T04:18:50.027Z,95.90
2023-02-20T04:19:50.044Z,95.88
2023-02-20T04:20:50.094Z,95.59
2023-02-20T04:21:50.124Z,96.73
2023-02-20T04:22:50.186Z,97.63
2023-02-20T04:23:50.219Z,94.74
2023-02-20T04:24:50.256Z,95.98
2023-02-20T04:25:50.287Z,96.96
2023-02-20T04:26:50.330Z,96.86
2023-02-20T04:27:50.380Z,96.11
2023-02-20T04:28:50.427Z,95.54
2023-02-20T04:29:50.499Z,96.02
2023-02-20T04:30:50.617Z,95.06
2023-02-20T04:31:50.617Z,95.76
2023-02-20T04:32:51.292Z,96.92
2023-02-20T04:33:50.599Z,97.01
2023-02-20T04:34:50.671Z,96.15
2023-02-20T04:35:50.686Z,96.18
2023-02-20T04:36:50.707Z,95.94
2023-02-20T04:37:50.744Z,95.34
2023-02-20T04:38:50.791Z,96.42
2023-02-20T04:39:50.840Z,95.52
2023-02-20T05:05:51.870Z,93.87
2023-02-20T05:06:51.882Z,93.27
2023-02-20T05:07:51.926Z,93.23
2023-02-20T05:08:51.943Z,94.46
2023-02-20T05:09:51.968Z,93.78
2023-02-20T05:10:51.994Z,94.48
2023-02-20T05:11:52.029Z,93.63
2023-02-20T05:12:52.063Z,93.49
2023-02-20T05:13:52.094Z,93.98
2023-02-20T05:14:52.919Z,93.92
2023-02-20T05:15:52.163Z,93.07
2023-02-20T05:16:52.201Z,92.43
2023-02-20T05:17:52.268Z,94.27
2023-02-20T05:18:52.277Z,92.54
2023-02-20T05:19:52.324Z,94.01
2023-02-20T05:20:52.343Z,93.55
2023-02-20T05:21:52.367Z,92.31
2023-02-20T05:22:52.404Z,94.60
2023-02-20T05:23:52.436Z,92.42
2023-02-20T05:24:52.478Z,91.98
2023-02-20T05:25:52.516Z,91.75
2023-02-20T05:26:52.556Z,92.59
2023-02-20T05:27:52.581Z,92.41
2023-02-20T05:28:52.624Z,91.67
2023-02-20T05:29:52.657Z,92.63
2023-02-20T05:30:52.724Z,91.51
2023-02-20T05:31:52.847Z,91.49
2023-02-20T05:32:52.757Z,91.40
2023-02-20T05:33:52.799Z,91.58
2023-02-20T05:34:52.837Z,92.86
2023-02-20T05:35:52.881Z,94.03
2023-02-20T05:36:52.909Z,91.71
2023-02-20T05:37:52.930Z,91.81
2023-02-20T05:38:52.975Z,90.06
2023-02-20T05:39:53.004Z,90.84
2023-02-20T05:40:53.031Z,91.72
2023-02-20T05:41:53.066Z,92.72
2023-02-20T05:42:53.099Z,92.20
2023-02-20T05:43:53.133Z,91.59
2023-02-20T05:44:53.171Z,90.23
2023-02-20T05:45:53.200Z,91.21
2023-02-20T05:46:53.242Z,91.55
2023-02-20T05:47:53.274Z,93.09
2023-02-20T05:48:53.326Z,93.17
2023-02-20T05:49:53.372Z,91.44
2023-02-20T05:50:53.400Z,91.35
2023-02-20T05:51:53.428Z,91.50
2023-02-20T05:52:53.460Z,90.69
2023-02-20T05:53:53.520Z,90.24
2023-02-20T05:54:53.549Z,91.15
2023-02-20T05:55:53.566Z,89.94
2023-02-20T05:56:53.597Z,90.71
2023-02-20T05:57:53.644Z,91.74
2023-02-20T05:58:53.691Z,92.84
2023-02-20T05:59:53.726Z,92.42
2023-02-20T06:00:53.770Z,90.65
2023-02-20T06:01:53.809Z,91.09
2023-02-20T06:02:53.858Z,92.22
2023-02-20T06:03:53.931Z,92.45
2023-02-20T06:04:53.980Z,90.72
2023-02-20T06:05:53.990Z,91.78
2023-02-20T06:06:54.023Z,89.70
2023-02-20T06:07:54.068Z,89.87
2023-02-20T06:08:54.117Z,91.51
2023-02-20T06:09:54.679Z,91.46
2023-02-20T06:10:54.177Z,90.64
2023-02-20T06:11:54.225Z,90.43
2023-02-20T06:12:54.254Z,90.49
2023-02-20T06:13:54.312Z,91.74
2023-02-20T06:14:54.344Z,92.69
2023-02-20T06:15:54.416Z,90.64
2023-02-20T06:16:54.441Z,91.57
2023-02-20T06:17:54.483Z,93.06
2023-02-20T06:18:54.526Z,93.13
2023-02-20T06:19:54.555Z,89.53
2023-02-20T06:20:54.607Z,94.44
2023-02-20T06:21:54.653Z,94.49
2023-02-20T06:22:55.320Z,96.84
2023-02-20T06:24:54.741Z,103.34
2023-02-20T06:25:54.795Z,105.72
2023-02-20T06:26:54.793Z,115.49
2023-02-20T06:27:54.809Z,119.92
2023-02-20T07:50:06.661Z,89.25
2023-02-20T08:04:06.661Z,123.78
2023-02-20T08:06:06.270Z,80.39
2023-02-20T08:07:06.274Z,78.33
2023-02-20T08:08:06.310Z,68.06
2023-02-20T08:09:06.328Z,73.62
2023-02-20T08:10:06.351Z,81.56
2023-02-20T08:11:09.977Z,80.99
2023-02-20T08:12:06.544Z,92.38
2023-02-20T08:13:06.477Z,102.06
2023-02-20T08:14:06.490Z,104.50
2023-02-20T08:15:06.512Z,129.88
2023-02-20T08:16:06.600Z,168.47
2023-02-20T08:17:06.562Z,180.67
2023-02-20T08:18:18.593Z,200.92
2023-02-20T08:19:07.611Z,201.70
2023-02-20T08:20:06.637Z,206.44
2023-02-20T08:21:06.649Z,218.97
2023-02-20T08:22:07.587Z,242.24
2023-02-20T08:23:07.590Z,280.01
2023-02-20T08:24:06.715Z,248.17
2023-02-20T08:25:06.772Z,247.57
2023-02-20T08:26:06.917Z,247.21
2023-02-20T08:27:06.871Z,247.98
2023-02-20T08:28:07.063Z,247.06
2023-02-20T08:29:07.046Z,246.61
2023-02-20T08:30:06.927Z,238.56
2023-02-20T08:31:06.881Z,239.28
2023-02-20T08:32:06.986Z,245.13
2023-02-20T08:33:06.895Z,246.99
2023-02-20T08:34:06.911Z,247.07
2023-02-20T08:35:06.957Z,246.64
2023-02-20T08:36:06.957Z,233.64
2023-02-20T08:37:07.010Z,221.33
2023-02-20T08:38:06.994Z,238.00
2023-02-20T08:39:07.016Z,247.50
2023-02-20T08:40:07.040Z,249.06
2023-02-20T08:41:07.055Z,247.34
2023-02-20T08:42:07.672Z,250.00
2023-02-20T08:43:07.079Z,248.24
2023-02-20T08:44:07.084Z,248.20
2023-02-20T08:45:07.111Z,240.09
2023-02-20T08:46:07.153Z,247.00
2023-02-20T08:47:07.183Z,241.22
2023-02-20T08:48:07.135Z,246.12
2023-02-20T08:49:07.132Z,246.51
2023-02-20T08:50:07.147Z,237.06
2023-02-20T08:51:07.176Z,242.93
2023-02-20T08:52:07.166Z,236.85
2023-02-20T08:53:07.158Z,236.11
2023-02-20T08:54:07.199Z,236.14
2023-02-20T08:55:07.236Z,238.55
2023-02-20T08:56:07.682Z,241.76
2023-02-20T08:57:07.328Z,236.32
2023-02-20T08:58:07.390Z,233.83
2023-02-20T08:59:07.486Z,231.48
2023-02-20T09:00:07.565Z,226.61
2023-02-20T09:01:07.667Z,230.79
2023-02-20T09:02:07.748Z,233.36
2023-02-20T09:03:07.792Z,235.33
2023-02-20T09:04:07.955Z,230.61
2023-02-20T09:05:07.954Z,221.61
2023-02-20T09:06:08.202Z,232.45
2023-02-20T09:07:08.136Z,236.28
2023-02-20T09:08:08.194Z,231.97
2023-02-20T09:09:08.281Z,233.95
2023-02-20T09:10:08.363Z,231.66
2023-02-20T09:11:10.105Z,241.11
2023-02-20T09:12:08.416Z,244.21
2023-02-20T09:13:08.456Z,247.11
2023-02-20T09:14:08.486Z,250.00
2023-02-20T09:15:08.508Z,248.83
2023-02-20T09:16:08.531Z,250.34
2023-02-20T09:17:08.515Z,247.10
2023-02-20T09:18:08.516Z,223.97
2023-02-20T09:19:08.547Z,161.91
2023-02-20T09:20:08.597Z,161.68
2023-02-20T09:21:08.619Z,181.61
2023-02-20T09:22:08.652Z,175.89
2023-02-20T09:23:08.681Z,183.00
2023-02-20T09:24:08.718Z,199.22
2023-02-20T09:25:08.758Z,200.72
2023-02-20T09:26:08.858Z,199.31
2023-02-20T09:27:09.695Z,208.18
2023-02-20T09:28:08.862Z,211.43
2023-02-20T09:29:08.867Z,219.49
2023-02-20T09:30:08.916Z,214.70
2023-02-20T09:31:08.999Z,210.16
2023-02-20T09:32:09.039Z,161.27
2023-02-20T09:33:08.973Z,168.07
2023-02-20T09:34:09.017Z,163.63
2023-02-20T09:35:09.027Z,175.66
2023-02-20T09:36:09.058Z,178.78
2023-02-20T09:37:09.087Z,185.51
2023-02-20T09:38:09.096Z,194.44
2023-02-20T09:39:09.102Z,204.76
2023-02-20T09:40:09.122Z,208.22
2023-02-20T09:41:09.123Z,215.74
2023-02-20T09:42:09.151Z,226.96
2023-02-20T09:43:09.207Z,229.47
2023-02-20T09:44:09.261Z,231.66
2023-02-20T09:45:09.322Z,240.35
2023-02-20T09:46:09.430Z,241.14
2023-02-20T09:47:09.468Z,249.27
2023-02-20T09:48:09.515Z,247.81
2023-02-20T09:49:09.582Z,250.03
2023-02-20T09:50:09.648Z,250.77
2023-02-20T09:51:09.681Z,250.00
2023-02-20T09:52:10.212Z,250.00
2023-02-20T09:53:09.764Z,250.00
2023-02-20T09:54:09.803Z,249.10
2023-02-20T09:55:09.847Z,249.67
2023-02-20T09:56:11.036Z,250.00
2023-02-20T09:57:09.942Z,247.76
2023-02-20T09:58:09.971Z,250.43
2023-02-20T09:59:10.016Z,248.69
2023-02-20T10:00:10.047Z,250.00
2023-02-20T10:01:10.089Z,249.79
2023-02-20T10:02:10.327Z,249.73
2023-02-20T10:03:10.283Z,250.00
2023-02-20T10:04:10.199Z,250.00
2023-02-20T10:05:10.228Z,249.03
2023-02-20T10:06:10.537Z,249.32
2023-02-20T10:07:10.290Z,248.72
2023-02-20T10:08:10.346Z,249.64
2023-02-20T10:09:11.216Z,249.60
2023-02-20T10:10:10.421Z,250.19
2023-02-20T10:11:11.059Z,248.85
2023-02-20T10:12:10.407Z,249.36
2023-02-20T10:13:10.422Z,249.70
2023-02-20T10:14:11.185Z,250.00
2023-02-20T10:15:10.452Z,249.97
2023-02-20T10:16:13.532Z,250.00
2023-02-20T10:17:10.973Z,245.85
2023-02-20T10:18:11.474Z,246.15
2023-02-20T10:19:10.510Z,246.74
2023-02-20T10:20:10.455Z,247.27
2023-02-20T10:21:10.473Z,248.03
2023-02-20T10:22:10.446Z,246.51
2023-02-20T10:25:29.832Z,25.00
2023-02-20T10:26:30.253Z,25.00
2023-02-20T10:27:29.706Z,25.00
2023-02-20T10:28:29.728Z,25.00
2023-02-20T10:29:30.337Z,25.00
2023-02-20T10:30:29.925Z,28.63
2023-02-20T10:31:29.839Z,24.59
2023-02-20T10:32:29.785Z,24.80
2023-02-20T10:33:29.817Z,23.07
2023-02-20T10:34:29.807Z,26.04
2023-02-20T10:35:29.831Z,30.62
2023-02-20T10:36:29.834Z,34.41
2023-02-20T10:37:41.939Z,42.65
2023-02-20T10:39:29.882Z,43.44
2023-02-20T10:40:29.890Z,43.76
2023-02-20T10:41:29.918Z,48.77
2023-02-20T10:42:29.912Z,56.61
2023-02-20T10:43:29.926Z,61.99
2023-02-20T10:44:30.998Z,68.53
2023-02-20T10:45:29.965Z,68.78
2023-02-20T10:46:36.961Z,70.82
2023-02-20T10:48:30.007Z,72.20
2023-02-20T10:49:30.021Z,79.24
2023-02-20T10:50:30.046Z,90.45
2023-02-20T10:51:30.067Z,116.99
2023-02-20T10:52:34.419Z,129.15
2023-02-20T10:53:30.082Z,129.63
2023-02-20T10:54:30.098Z,131.78
2023-02-20T10:55:30.116Z,139.55
2023-02-20T10:56:30.115Z,149.19
2023-02-20T10:57:30.131Z,168.49
2023-02-20T10:58:30.202Z,163.72
2023-02-20T10:59:30.157Z,170.64
2023-02-20T11:01:30.292Z,204.95
2023-02-20T11:02:30.220Z,205.17
2023-02-20T11:06:30.129Z,117.03
2023-02-20T11:08:30.153Z,48.68
2023-02-20T11:09:30.143Z,19.71
2023-02-20T11:10:30.142Z,22.03
2023-02-20T11:11:30.169Z,22.59
2023-02-20T11:15:30.191Z,54.42
2023-02-20T13:54:36.909Z,62.90
2023-02-20T13:57:36.243Z,60.29
2023-02-20T13:58:36.262Z,62.71
2023-02-20T13:59:36.287Z,60.38
2023-02-20T14:00:36.377Z,60.29
2023-02-20T14:01:36.511Z,59.72
2023-02-20T14:02:36.388Z,57.37
2023-02-20T14:03:37.412Z,58.58
2023-02-20T14:04:37.497Z,55.71
2023-02-20T14:05:36.469Z,58.40
2023-02-20T14:09:36.616Z,57.19
2023-02-20T14:47:38.371Z,45.92
2023-02-20T14:48:38.458Z,45.95
2023-02-20T14:49:38.496Z,47.55
2023-02-20T14:50:38.607Z,46.83
2023-02-20T14:51:38.602Z,48.49
2023-02-20T14:52:38.720Z,48.90
2023-02-20T14:53:38.699Z,44.25
2023-02-20T14:54:38.769Z,43.15
2023-02-20T14:55:38.831Z,42.01
2023-02-20T14:56:38.898Z,44.05
2023-02-20T14:57:38.961Z,39.45
2023-02-20T14:58:39.020Z,42.70
2023-02-20T14:59:39.082Z,41.46
2023-02-20T15:00:39.208Z,40.74
2023-02-20T15:01:39.337Z,40.79
2023-02-20T15:02:39.242Z,42.43
2023-02-20T18:03:46.350Z,34.62
2023-02-20T18:04:46.292Z,34.38
2023-02-20T18:05:46.329Z,30.88
2023-02-20T18:06:46.362Z,33.23
2023-02-20T18:07:46.425Z,33.61
2023-02-20T18:08:46.449Z,31.35
2023-02-20T18:09:46.483Z,30.50
2023-02-20T18:10:46.526Z,35.05
2023-02-20T18:11:46.590Z,33.47
2023-02-20T18:12:46.605Z,33.23
2023-02-20T18:13:47.516Z,33.02
2023-02-20T18:14:46.697Z,32.04
2023-02-20T18:15:46.725Z,31.49
2023-02-20T18:16:46.811Z,33.66
2023-02-20T18:17:46.821Z,30.18
2023-02-20T18:18:46.865Z,32.28
2023-02-20T18:19:46.922Z,30.38
2023-02-20T18:20:46.948Z,29.75
2023-02-20T18:21:46.990Z,30.92
2023-02-20T18:22:47.153Z,28.48
2023-02-20T18:23:47.083Z,28.60
2023-02-20T18:24:47.121Z,29.86
2023-02-20T18:25:47.229Z,27.62
2023-02-20T18:26:47.224Z,31.46
2023-02-20T18:27:47.261Z,26.06
2023-02-20T18:28:47.441Z,26.91
2023-02-20T18:29:47.359Z,27.08
2023-02-20T18:30:47.406Z,27.15
2023-02-20T18:31:47.557Z,25.00
2023-02-20T18:32:47.544Z,28.67
2023-02-20T18:33:47.544Z,28.25
2023-02-20T18:34:47.591Z,26.53
2023-02-20T18:35:58.378Z,26.49
2023-02-20T18:36:48.656Z,26.78
2023-02-20T18:37:47.695Z,26.84
2023-02-20T18:38:47.711Z,27.06
2023-02-20T18:39:47.730Z,27.29
2023-02-20T18:40:48.523Z,28.25
2023-02-20T18:41:47.804Z,26.20
2023-02-20T18:42:47.819Z,28.85
2023-02-20T18:43:47.842Z,25.95
2023-02-20T18:44:47.875Z,28.74
2023-02-20T18:45:47.960Z,26.45
2023-02-20T18:46:47.929Z,25.00
2023-02-20T18:47:47.955Z,27.23
2023-02-20T18:48:47.983Z,27.76
2023-02-20T18:49:48.017Z,26.33
2023-02-20T18:50:48.040Z,27.94
2023-02-20T18:51:48.065Z,26.83
2023-02-20T18:52:48.094Z,26.15
2023-02-20T18:53:48.105Z,25.67
2023-02-20T18:54:48.143Z,27.80
2023-02-20T18:55:48.164Z,25.61
2023-02-20T18:56:48.281Z,25.13
2023-02-20T18:57:48.216Z,26.92
2023-02-20T18:58:48.234Z,25.55
2023-02-20T18:59:48.281Z,27.48
2023-02-20T19:00:48.310Z,27.69
2023-02-20T19:01:48.379Z,26.73
2023-02-20T19:02:48.402Z,26.79
2023-02-20T19:03:48.451Z,27.18
2023-02-20T19:04:48.473Z,26.98
2023-02-20T19:05:48.527Z,25.00
2023-02-20T19:06:48.664Z,25.68
2023-02-20T19:07:48.631Z,26.43
2023-02-20T19:08:48.689Z,25.28
2023-02-20T19:09:48.741Z,26.20
2023-02-20T19:10:48.782Z,26.63
2023-02-20T19:11:48.827Z,26.01
2023-02-20T19:12:48.884Z,27.25
2023-02-20T19:13:48.944Z,27.30
2023-02-20T19:14:48.989Z,26.46
2023-02-20T19:15:49.048Z,25.94
2023-02-20T19:16:49.176Z,26.65
2023-02-20T19:17:49.200Z,25.77
2023-02-20T19:18:50.691Z,26.36
2023-02-20T19:19:49.269Z,25.06
2023-02-20T19:20:49.324Z,25.00
2023-02-20T19:21:49.388Z,27.34
2023-02-20T19:22:49.445Z,25.75
2023-02-20T19:23:49.506Z,27.22
2023-02-20T19:24:49.595Z,26.20
2023-02-20T19:25:49.702Z,25.84
2023-02-20T19:26:49.673Z,26.46
2023-02-20T19:27:49.769Z,25.91
2023-02-20T19:28:49.864Z,26.53
2023-02-20T19:29:49.849Z,26.01
2023-02-20T19:30:49.905Z,27.92
2023-02-20T19:31:50.162Z,25.68
2023-02-20T19:32:50.042Z,27.14
2023-02-20T19:33:50.546Z,25.07
2023-02-20T19:34:51.043Z,26.34
2023-02-20T19:35:50.188Z,26.55
2023-02-20T19:36:50.247Z,27.41
2023-02-20T19:37:50.306Z,25.54
2023-02-20T19:38:50.365Z,28.19
2023-02-20T19:39:50.420Z,27.73
2023-02-20T19:40:50.498Z,28.46
2023-02-20T19:41:50.539Z,26.50
2023-02-20T19:42:50.603Z,26.84
2023-02-20T19:43:50.677Z,28.05
2023-02-20T19:44:50.718Z,27.54
2023-02-20T19:45:50.839Z,26.04
2023-02-20T19:46:50.854Z,26.86
2023-02-20T19:47:50.931Z,27.66
2023-02-20T19:48:51.560Z,27.05
2023-02-20T19:49:51.045Z,26.72
2023-02-20T19:50:51.117Z,25.53
2023-02-20T19:51:51.176Z,25.87
2023-02-20T19:52:51.246Z,25.00
2023-02-20T19:53:52.116Z,25.52
2023-02-20T19:54:51.361Z,26.51
2023-02-20T19:55:51.427Z,25.70
2023-02-20T19:56:51.491Z,25.18
2023-02-20T19:57:51.554Z,25.16
2023-02-20T19:58:51.615Z,28.00
2023-02-20T19:59:51.689Z,25.74
2023-02-20T20:00:51.940Z,27.11
2023-02-20T20:01:51.822Z,28.06
2023-02-20T20:02:51.991Z,27.51
2023-02-20T20:03:51.942Z,25.60
2023-02-20T20:04:52.010Z,25.94
2023-02-20T20:05:52.078Z,26.10
2023-02-20T20:06:52.171Z,27.22
2023-02-20T20:07:52.220Z,26.99
2023-02-20T20:09:10.439Z,26.89
2023-02-20T20:09:53.290Z,27.07
2023-02-20T20:10:52.310Z,27.11
2023-02-20T20:11:52.445Z,25.70
2023-02-20T20:12:53.058Z,23.88
2023-02-20T20:13:52.389Z,22.37
2023-02-20T20:14:52.422Z,25.42
2023-02-20T20:15:52.445Z,25.99
2023-02-20T20:16:52.515Z,26.99
2023-02-20T20:17:52.560Z,25.00
2023-02-20T20:18:52.514Z,25.54
2023-02-20T20:19:58.846Z,28.28
2023-02-20T20:20:53.565Z,28.45
2023-02-20T20:21:52.584Z,28.47
2023-02-20T20:22:52.616Z,27.37
2023-02-20T20:23:52.638Z,26.21
2023-02-20T20:24:53.076Z,23.97
2023-02-20T20:25:52.682Z,25.02
2023-02-20T20:26:52.703Z,25.86
2023-02-20T20:27:52.737Z,26.13
2023-02-20T20:28:52.756Z,27.04
2023-02-20T20:29:52.815Z,27.92
2023-02-20T20:30:52.940Z,27.31
2023-02-20T20:31:52.896Z,26.43
2023-02-20T20:32:52.943Z,25.09
2023-02-20T20:33:53.016Z,25.70
2023-02-20T20:34:53.340Z,25.00
2023-02-20T20:35:53.130Z,28.85
2023-02-20T20:36:53.219Z,27.27
2023-02-20T20:37:53.280Z,26.07
2023-02-20T20:38:53.353Z,26.30
2023-02-20T20:39:53.459Z,25.54
2023-02-20T20:40:53.565Z,27.43
2023-02-20T20:41:53.545Z,26.64
2023-02-20T20:42:53.622Z,28.99
2023-02-20T20:43:53.701Z,28.52
2023-02-20T20:44:53.774Z,29.95
2023-02-20T20:45:53.860Z,30.38
2023-02-20T20:46:53.895Z,28.59
2023-02-20T20:47:53.958Z,29.02
2023-02-20T20:48:54.027Z,28.45
2023-02-20T20:49:54.098Z,28.68
2023-02-20T20:50:54.158Z,29.38
2023-02-20T20:51:54.237Z,29.46
2023-02-20T20:52:54.304Z,27.93
2023-02-20T20:53:54.369Z,28.46
2023-02-20T20:54:54.436Z,28.06
2023-02-20T20:55:54.504Z,27.98
2023-02-20T20:56:55.072Z,26.98
2023-02-20T20:57:54.630Z,26.30
2023-02-20T20:58:54.690Z,28.13
2023-02-20T20:59:54.769Z,28.41
2023-02-20T21:00:54.828Z,28.73
2023-02-20T21:01:54.914Z,29.04
2023-02-20T21:02:54.984Z,30.56
2023-02-20T21:03:55.035Z,28.85
2023-02-20T21:05:08.913Z,29.17
2023-02-20T21:06:55.144Z,29.27
2023-02-20T21:07:55.172Z,28.17
2023-02-20T21:08:55.196Z,26.40
2023-02-20T21:09:55.226Z,26.69
2023-02-20T21:10:55.331Z,27.34
2023-02-20T21:11:55.351Z,27.99
2023-02-20T21:12:55.301Z,28.04
2023-02-20T21:13:55.337Z,26.34
2023-02-20T21:14:55.349Z,26.31
2023-02-20T21:15:55.455Z,27.38
2023-02-20T21:16:55.396Z,27.00
2023-02-20T21:17:55.472Z,27.06
2023-02-20T21:18:55.521Z,27.49
2023-02-20T21:19:55.592Z,28.87
2023-02-20T21:20:55.668Z,27.26
2023-02-20T21:21:55.730Z,28.06
2023-02-20T21:22:55.810Z,25.53
2023-02-20T21:23:55.870Z,27.92
2023-02-20T21:24:55.938Z,26.51
2023-02-20T21:25:56.007Z,27.27
2023-02-20T21:26:56.075Z,26.54
2023-02-20T21:29:56.271Z,27.78
2023-02-20T23:51:06.304Z,25.86
2023-02-20T23:52:15.950Z,25.28
2023-02-20T23:53:07.420Z,25.55
2023-02-20T23:54:06.431Z,26.45
2023-02-20T23:55:06.463Z,26.57
2023-02-20T23:56:06.484Z,29.07
2023-02-20T23:57:06.519Z,31.09
2023-02-20T23:58:06.573Z,31.13
2023-02-20T23:59:06.580Z,33.26
